createdAt,value
2022-09-13T00:01:09.719Z,100.00
2022-09-13T00:03:36.479Z,100.00
2022-09-13T00:06:19.252Z,100.00
2022-09-13T00:08:46.966Z,100.00
2022-09-13T00:11:31.949Z,100.00
2022-09-13T00:13:59.681Z,100.00
2022-09-13T00:16:28.851Z,100.00
2022-09-13T00:18:56.849Z,100.00
2022-09-13T00:21:24.653Z,100.00
2022-09-13T00:23:53.501Z,100.00
2022-09-13T00:26:23.699Z,100.00
2022-09-13T00:28:56.113Z,100.00
2022-09-13T00:31:24.714Z,100.00
2022-09-13T00:33:51.709Z,100.00
2022-09-13T00:36:18.435Z,100.00
2022-09-13T00:38:45.229Z,100.00
2022-09-13T00:41:15.874Z,100.00
2022-09-13T00:43:53.767Z,100.00
2022-09-13T00:46:47.443Z,100.00
2022-09-13T00:49:17.081Z,100.00
2022-09-13T00:51:48.459Z,100.00
2022-09-13T00:54:16.925Z,100.00
2022-09-13T00:56:49.152Z,100.00
2022-09-13T00:59:23.268Z,100.00
2022-09-13T01:01:54.341Z,100.00
2022-09-13T01:04:25.128Z,100.00
2022-09-13T01:06:56.887Z,100.00
2022-09-13T01:09:24.309Z,100.00
2022-09-13T01:12:04.681Z,100.00
2022-09-13T01:14:33.102Z,100.00
2022-09-13T01:17:00.014Z,100.00
2022-09-13T01:19:26.956Z,100.00
2022-09-13T01:22:05.633Z,100.00
2022-09-13T01:25:10.817Z,100.00
2022-09-13T01:28:10.673Z,100.00
2022-09-13T01:30:42.578Z,100.00
2022-09-13T01:33:37.715Z,100.00
2022-09-13T01:36:16.355Z,100.00
2022-09-13T01:38:49.622Z,100.00
2022-09-13T01:41:55.052Z,100.00
2022-09-13T01:44:30.394Z,100.00
2022-09-13T01:47:23.944Z,100.00
2022-09-13T01:50:07.822Z,100.00
2022-09-13T01:52:56.519Z,100.00
2022-09-13T01:56:01.090Z,100.00
2022-09-13T01:58:50.230Z,100.00
2022-09-13T02:01:36.549Z,100.00
2022-09-13T02:04:13.411Z,100.00
2022-09-13T02:06:58.090Z,100.00
2022-09-13T02:09:28.238Z,100.00
2022-09-13T02:12:01.426Z,100.00
2022-09-13T02:14:35.602Z,100.00
2022-09-13T02:17:15.763Z,100.00
2022-09-13T02:19:53.560Z,100.00
2022-09-13T02:22:26.425Z,100.00
2022-09-13T02:24:57.993Z,100.00
2022-09-13T02:27:27.318Z,100.00
2022-09-13T02:29:58.833Z,100.00
2022-09-13T02:32:30.280Z,100.00
2022-09-13T02:35:13.796Z,100.00
2022-09-13T02:37:45.251Z,100.00
2022-09-13T02:40:17.456Z,100.00
2022-09-13T02:42:58.328Z,100.00
2022-09-13T02:45:33.898Z,100.00
2022-09-13T02:48:08.174Z,100.00
2022-09-13T02:50:59.718Z,100.00
2022-09-13T02:53:44.010Z,100.00
2022-09-13T02:56:35.404Z,100.00
2022-09-13T02:59:17.240Z,100.00
2022-09-13T03:02:05.797Z,100.00
2022-09-13T03:04:34.466Z,100.00
2022-09-13T03:07:04.612Z,100.00
2022-09-13T03:09:32.924Z,100.00
2022-09-13T03:12:14.422Z,100.00
2022-09-13T03:14:42.812Z,100.00
2022-09-13T03:17:17.162Z,100.00
2022-09-13T03:20:04.917Z,100.00
2022-09-13T03:23:01.574Z,100.00
2022-09-13T03:25:28.242Z,100.00
2022-09-13T03:28:19.235Z,100.00
2022-09-13T03:31:18.096Z,100.00
2022-09-13T03:34:18.490Z,100.00
2022-09-13T03:36:57.676Z,100.00
2022-09-13T03:39:43.291Z,100.00
2022-09-13T03:42:27.455Z,100.00
2022-09-13T03:44:57.337Z,100.00
2022-09-13T03:47:29.048Z,100.00
2022-09-13T03:49:57.393Z,100.00
2022-09-13T03:52:24.717Z,100.00
2022-09-13T03:54:52.780Z,100.00
2022-09-13T03:57:21.941Z,100.00
2022-09-13T03:59:56.920Z,100.00
2022-09-13T04:02:25.376Z,100.00
2022-09-13T04:04:52.505Z,100.00
2022-09-13T04:07:21.930Z,100.00
2022-09-13T04:09:48.845Z,100.00
2022-09-13T04:12:17.075Z,100.00
2022-09-13T04:14:44.720Z,100.00
2022-09-13T04:17:12.300Z,100.00
2022-09-13T04:19:39.128Z,100.00
2022-09-13T04:22:05.846Z,100.00
2022-09-13T04:24:32.670Z,100.00
2022-09-13T04:26:59.441Z,100.00
2022-09-13T04:29:27.175Z,100.00
2022-09-13T04:31:55.602Z,100.00
2022-09-13T04:34:23.372Z,100.00
2022-09-13T04:36:52.384Z,100.00
2022-09-13T04:39:23.292Z,100.00
2022-09-13T04:41:52.051Z,100.00
2022-09-13T04:44:19.041Z,100.00
2022-09-13T04:46:49.165Z,100.00
2022-09-13T04:49:17.675Z,100.00
2022-09-13T04:51:44.710Z,100.00
2022-09-13T04:54:15.462Z,100.00
2022-09-13T04:56:43.282Z,100.00
2022-09-13T04:59:10.943Z,100.00
2022-09-13T05:01:37.987Z,100.00
2022-09-13T05:04:06.023Z,100.00
2022-09-13T05:06:32.868Z,100.00
2022-09-13T05:08:59.587Z,100.00
2022-09-13T05:11:27.934Z,100.00
2022-09-13T05:13:57.131Z,100.00
2022-09-13T05:16:28.999Z,100.00
2022-09-13T05:18:55.973Z,100.00
2022-09-13T05:21:24.232Z,100.00
2022-09-13T05:23:52.399Z,100.00
2022-09-13T05:26:19.775Z,100.00
2022-09-13T05:28:46.596Z,100.00
2022-09-13T05:31:13.352Z,100.00
2022-09-13T05:33:40.062Z,100.00
2022-09-13T05:36:07.256Z,100.00
2022-09-13T05:38:34.360Z,100.00
2022-09-13T05:41:03.139Z,100.00
2022-09-13T05:43:32.329Z,100.00
2022-09-13T05:46:14.104Z,100.00
2022-09-13T05:48:41.733Z,100.00
2022-09-13T05:51:20.104Z,100.00
2022-09-13T05:53:52.208Z,100.00
2022-09-13T05:56:24.144Z,100.00
2022-09-13T05:58:52.492Z,100.00
2022-09-13T06:01:21.847Z,100.00
2022-09-13T06:03:53.181Z,100.00
2022-09-13T06:06:20.886Z,100.00
2022-09-13T06:08:47.638Z,100.00
2022-09-13T06:11:15.696Z,100.00
2022-09-13T06:13:45.575Z,100.00
2022-09-13T06:16:14.192Z,100.00
2022-09-13T06:18:41.190Z,100.00
2022-09-13T06:21:11.369Z,100.00
2022-09-13T06:23:38.744Z,100.00
2022-09-13T06:26:10.953Z,100.00
2022-09-13T06:28:38.634Z,100.00
2022-09-13T06:31:07.025Z,100.00
2022-09-13T06:33:34.369Z,100.00
2022-09-13T06:36:05.908Z,100.00
2022-09-13T06:38:32.749Z,100.00
2022-09-13T06:41:07.198Z,99.30
2022-09-13T06:43:34.475Z,90.09
2022-09-13T06:46:03.280Z,68.42
2022-09-13T06:48:38.770Z,60.91
2022-09-13T06:51:15.488Z,55.69
2022-09-13T06:53:43.021Z,62.76
2022-09-13T06:56:18.962Z,63.42
2022-09-13T06:58:47.052Z,53.21
2022-09-13T07:01:20.090Z,55.33
2022-09-13T07:03:49.336Z,53.71
2022-09-13T07:06:22.220Z,52.18
2022-09-13T07:08:51.386Z,58.32
2022-09-13T07:11:20.244Z,66.88
2022-09-13T07:13:54.560Z,63.11
2022-09-13T07:16:24.550Z,53.07
2022-09-13T07:18:53.565Z,58.45
2022-09-13T07:21:20.851Z,54.67
2022-09-13T07:23:47.757Z,54.07
2022-09-13T07:26:15.046Z,56.31
2022-09-13T07:28:44.019Z,55.57
2022-09-13T07:31:14.011Z,49.22
2022-09-13T07:33:42.429Z,44.33
2022-09-13T07:36:11.946Z,44.73
2022-09-13T07:38:41.327Z,51.29
2022-09-13T07:41:12.265Z,57.62
2022-09-13T07:43:39.627Z,56.35
2022-09-13T07:46:10.485Z,63.95
2022-09-13T07:48:42.284Z,64.27
2022-09-13T07:51:16.935Z,63.79
2022-09-13T07:53:45.664Z,62.93
2022-09-13T07:56:17.942Z,56.81
2022-09-13T07:58:46.665Z,54.80
2022-09-13T08:01:22.859Z,55.47
2022-09-13T08:03:58.593Z,54.79
2022-09-13T08:06:27.123Z,51.40
2022-09-13T08:08:54.352Z,53.85
2022-09-13T08:11:25.202Z,56.35
2022-09-13T08:13:53.209Z,56.21
2022-09-13T08:16:22.231Z,58.37
2022-09-13T08:18:55.200Z,57.87
2022-09-13T08:21:27.364Z,55.23
2022-09-13T08:24:03.341Z,49.03
2022-09-13T08:26:35.636Z,50.15
2022-09-13T08:29:05.421Z,45.41
2022-09-13T08:31:33.412Z,43.58
2022-09-13T08:34:01.085Z,37.86
2022-09-13T08:36:29.547Z,38.13
2022-09-13T08:38:59.366Z,37.97
2022-09-13T08:41:38.828Z,38.43
2022-09-13T08:44:27.170Z,37.17
2022-09-13T08:47:39.675Z,37.53
2022-09-13T08:50:13.012Z,37.36
2022-09-13T08:52:52.337Z,38.75
2022-09-13T08:55:29.547Z,38.61
2022-09-13T08:58:05.705Z,39.96
2022-09-13T09:00:41.323Z,36.34
2022-09-13T09:03:46.976Z,36.88
2022-09-13T09:06:16.966Z,34.83
2022-09-13T09:08:52.601Z,33.71
2022-09-13T09:11:50.618Z,34.30
2022-09-13T09:14:26.152Z,37.16
2022-09-13T09:17:08.737Z,36.57
2022-09-13T09:19:42.290Z,38.69
2022-09-13T09:22:17.123Z,38.91
2022-09-13T09:24:48.635Z,39.31
2022-09-13T09:27:19.171Z,38.21
2022-09-13T09:29:49.608Z,37.92
2022-09-13T09:32:35.450Z,38.86
2022-09-13T09:35:20.395Z,39.11
2022-09-13T09:38:03.539Z,38.75
2022-09-13T09:40:33.469Z,38.65
2022-09-13T09:43:02.013Z,37.84
2022-09-13T09:45:32.387Z,38.11
2022-09-13T09:48:05.401Z,38.40
2022-09-13T09:50:36.899Z,37.81
2022-09-13T09:53:10.505Z,37.14
2022-09-13T09:55:53.970Z,38.61
2022-09-13T09:58:41.563Z,39.12
2022-09-13T10:01:33.753Z,40.00
2022-09-13T10:04:12.676Z,37.24
2022-09-13T10:06:43.681Z,38.12
2022-09-13T10:09:10.206Z,36.21
2022-09-13T10:12:00.348Z,37.67
2022-09-13T10:14:34.891Z,37.58
2022-09-13T10:17:23.411Z,38.42
2022-09-13T10:20:02.180Z,38.03
2022-09-13T10:22:30.316Z,37.97
2022-09-13T10:25:21.865Z,37.45
2022-09-13T10:27:54.028Z,37.49
2022-09-13T10:30:33.281Z,37.52
2022-09-13T10:33:01.070Z,37.12
2022-09-13T10:35:27.859Z,36.99
2022-09-13T10:37:54.827Z,36.81
2022-09-13T10:40:34.874Z,37.02
2022-09-13T10:43:08.110Z,36.25
2022-09-13T10:45:35.038Z,35.62
2022-09-13T10:48:15.210Z,35.84
2022-09-13T10:51:04.834Z,36.30
2022-09-13T10:53:41.428Z,35.28
2022-09-13T10:56:28.736Z,35.70
2022-09-13T10:59:16.617Z,37.18
2022-09-13T11:02:02.806Z,37.10
2022-09-13T11:04:29.651Z,37.06
2022-09-13T11:07:35.359Z,37.38
2022-09-13T11:10:34.617Z,37.67
2022-09-13T11:13:28.377Z,37.93
2022-09-13T11:16:25.729Z,38.69
2022-09-13T11:19:13.333Z,38.72
2022-09-13T11:21:48.475Z,37.81
2022-09-13T11:24:29.880Z,37.04
2022-09-13T11:27:13.095Z,37.63
2022-09-13T11:29:46.670Z,37.35
2022-09-13T11:32:32.588Z,37.53
2022-09-13T11:35:12.994Z,36.63
2022-09-13T11:37:39.639Z,37.28
2022-09-13T11:40:18.662Z,37.21
2022-09-13T11:42:53.562Z,36.89
2022-09-13T11:45:39.192Z,37.43
2022-09-13T11:48:51.253Z,36.96
2022-09-13T11:51:42.268Z,35.86
2022-09-13T11:54:32.373Z,35.80
2022-09-13T11:57:07.052Z,35.73
2022-09-13T11:59:51.686Z,36.40
2022-09-13T12:02:29.479Z,36.71
2022-09-13T12:05:22.036Z,35.92
2022-09-13T12:07:58.242Z,36.34
2022-09-13T12:10:45.463Z,36.23
2022-09-13T12:13:25.802Z,36.68
2022-09-13T12:16:01.136Z,36.45
2022-09-13T12:18:47.210Z,37.41
2022-09-13T12:21:19.455Z,38.29
2022-09-13T12:23:58.414Z,38.53
2022-09-13T12:26:42.067Z,38.00
2022-09-13T12:29:30.285Z,38.38
2022-09-13T12:32:05.527Z,38.02
2022-09-13T12:34:44.715Z,38.13
2022-09-13T12:37:17.425Z,38.17
2022-09-13T12:39:51.230Z,38.25
2022-09-13T12:42:45.942Z,39.13
2022-09-13T12:45:21.663Z,38.21
2022-09-13T12:48:07.152Z,38.97
2022-09-13T12:50:46.205Z,39.98
2022-09-13T12:53:38.302Z,39.75
2022-09-13T12:56:29.855Z,39.34
2022-09-13T12:59:09.167Z,40.11
2022-09-13T13:01:36.263Z,39.84
2022-09-13T13:04:10.248Z,39.87
2022-09-13T13:06:56.350Z,39.51
2022-09-13T13:09:44.743Z,39.80
2022-09-13T13:12:33.014Z,40.66
2022-09-13T13:15:24.853Z,40.82
2022-09-13T13:17:53.640Z,41.66
2022-09-13T13:20:42.288Z,41.14
2022-09-13T13:23:35.909Z,41.85
2022-09-13T13:26:20.601Z,41.74
2022-09-13T13:28:52.194Z,41.59
2022-09-13T13:31:24.907Z,41.15
2022-09-13T13:33:58.393Z,41.96
2022-09-13T13:36:28.905Z,41.93
2022-09-13T13:39:00.025Z,42.11
2022-09-13T13:41:38.807Z,41.40
2022-09-13T13:44:20.922Z,42.08
2022-09-13T13:47:13.811Z,42.11
2022-09-13T13:49:46.510Z,42.72
2022-09-13T13:52:16.890Z,42.40
2022-09-13T13:54:46.124Z,41.98
2022-09-13T13:57:43.133Z,42.64
2022-09-13T14:00:19.864Z,42.54
2022-09-13T14:02:49.462Z,41.17
2022-09-13T14:05:31.239Z,41.92
2022-09-13T14:08:10.912Z,43.49
2022-09-13T14:10:49.919Z,44.07
2022-09-13T14:13:41.352Z,44.21
2022-09-13T14:16:36.745Z,43.25
2022-09-13T14:19:24.317Z,44.88
2022-09-13T14:22:18.420Z,44.58
2022-09-13T14:24:48.960Z,45.74
2022-09-13T14:27:22.037Z,46.43
2022-09-13T14:29:58.343Z,46.07
2022-09-13T14:32:36.256Z,45.62
2022-09-13T14:35:22.095Z,46.46
2022-09-13T14:37:48.813Z,46.64
2022-09-13T14:40:28.931Z,47.21
2022-09-13T14:42:56.290Z,47.06
2022-09-13T14:45:37.376Z,46.40
2022-09-13T14:48:11.024Z,47.24
2022-09-13T14:50:43.018Z,48.58
2022-09-13T14:53:22.240Z,47.97
2022-09-13T14:55:57.062Z,48.44
2022-09-13T14:58:52.384Z,48.52
2022-09-13T15:01:26.563Z,47.37
2022-09-13T15:03:57.326Z,46.71
2022-09-13T15:06:33.436Z,48.16
2022-09-13T15:09:11.947Z,47.76
2022-09-13T15:11:44.024Z,46.98
2022-09-13T15:14:21.546Z,47.58
2022-09-13T15:16:50.683Z,47.20
2022-09-13T15:19:23.511Z,48.01
2022-09-13T15:21:54.601Z,48.44
2022-09-13T15:24:34.084Z,49.83
2022-09-13T15:27:16.790Z,49.40
2022-09-13T15:29:56.249Z,49.55
2022-09-13T15:32:34.065Z,49.33
2022-09-13T15:35:02.456Z,48.55
2022-09-13T15:37:32.418Z,49.49
2022-09-13T15:40:13.433Z,50.46
2022-09-13T15:42:40.255Z,50.02
2022-09-13T15:45:07.365Z,50.70
2022-09-13T15:47:37.694Z,51.90
2022-09-13T15:50:05.003Z,54.01
2022-09-13T15:52:33.154Z,52.47
2022-09-13T15:54:59.917Z,53.66
2022-09-13T15:57:31.573Z,56.65
2022-09-13T16:00:05.573Z,57.86
2022-09-13T16:02:33.733Z,60.58
2022-09-13T16:05:00.446Z,60.39
2022-09-13T16:07:27.586Z,60.00
2022-09-13T16:09:54.505Z,58.78
2022-09-13T16:12:24.566Z,56.52
2022-09-13T16:14:51.379Z,60.21
2022-09-13T16:17:20.943Z,63.82
2022-09-13T16:19:47.814Z,64.53
2022-09-13T16:22:15.334Z,65.02
2022-09-13T16:24:42.095Z,64.26
2022-09-13T16:27:10.957Z,64.92
2022-09-13T16:29:37.678Z,63.13
2022-09-13T16:32:05.495Z,63.90
2022-09-13T16:34:32.471Z,63.42
2022-09-13T16:36:59.612Z,64.51
2022-09-13T16:39:26.340Z,65.10
2022-09-13T16:41:53.190Z,66.83
2022-09-13T16:44:19.939Z,67.72
2022-09-13T16:46:47.088Z,68.84
2022-09-13T16:49:13.880Z,67.90
2022-09-13T16:51:40.612Z,69.23
2022-09-13T16:54:07.349Z,70.19
2022-09-13T16:56:34.142Z,70.70
2022-09-13T16:59:00.867Z,72.43
2022-09-13T17:01:29.261Z,73.07
2022-09-13T17:03:57.389Z,74.42
2022-09-13T17:06:25.672Z,78.35
2022-09-13T17:09:05.397Z,78.24
2022-09-13T17:11:35.530Z,77.63
2022-09-13T17:14:04.749Z,77.84
2022-09-13T17:16:37.792Z,81.85
2022-09-13T17:19:08.472Z,82.25
2022-09-13T17:21:35.429Z,82.31
2022-09-13T17:24:03.036Z,81.32
2022-09-13T17:26:30.023Z,82.87
2022-09-13T17:28:57.292Z,83.08
2022-09-13T17:31:24.098Z,84.67
2022-09-13T17:33:53.253Z,83.82
2022-09-13T17:36:21.074Z,83.47
2022-09-13T17:38:47.888Z,81.31
2022-09-13T17:41:19.489Z,81.34
2022-09-13T17:43:46.893Z,79.90
2022-09-13T17:46:17.972Z,79.50
2022-09-13T17:48:44.979Z,80.14
2022-09-13T17:51:14.426Z,80.12
2022-09-13T17:53:47.088Z,79.96
2022-09-13T17:56:18.945Z,82.12
2022-09-13T17:58:46.001Z,84.03
2022-09-13T18:01:13.873Z,85.53
2022-09-13T18:03:41.444Z,87.30
2022-09-13T18:06:10.299Z,90.02
2022-09-13T18:08:38.835Z,90.21
2022-09-13T18:11:20.529Z,91.05
2022-09-13T18:13:50.007Z,89.99
2022-09-13T18:16:23.722Z,91.18
2022-09-13T18:18:52.387Z,92.74
2022-09-13T18:21:22.937Z,91.58
2022-09-13T18:23:53.785Z,92.66
2022-09-13T18:26:24.958Z,93.65
2022-09-13T18:28:57.011Z,94.42
2022-09-13T18:31:28.322Z,94.02
2022-09-13T18:33:57.448Z,95.49
2022-09-13T18:36:25.766Z,98.11
2022-09-13T18:38:53.881Z,99.41
2022-09-13T18:41:30.319Z,100.00
2022-09-13T18:44:00.831Z,100.00
2022-09-13T18:46:33.370Z,100.00
2022-09-13T18:49:02.492Z,99.94
2022-09-13T18:51:30.691Z,100.00
2022-09-13T18:53:59.944Z,100.00
2022-09-13T18:56:28.032Z,100.00
2022-09-13T18:58:56.670Z,100.00
2022-09-13T19:01:27.148Z,100.00
2022-09-13T19:03:56.784Z,100.00
2022-09-13T19:06:35.445Z,100.00
2022-09-13T19:09:03.679Z,100.00
2022-09-13T19:11:46.976Z,100.00
2022-09-13T19:14:23.610Z,100.00
2022-09-13T19:16:53.054Z,100.00
2022-09-13T19:19:20.203Z,100.00
2022-09-13T19:21:47.468Z,100.00
2022-09-13T19:24:19.866Z,100.00
2022-09-13T19:26:51.491Z,100.00
2022-09-13T19:29:21.175Z,100.00
2022-09-13T19:31:49.810Z,100.00
2022-09-13T19:34:18.955Z,100.00
2022-09-13T19:36:46.265Z,100.00
2022-09-13T19:39:13.773Z,100.00
2022-09-13T19:41:41.696Z,100.00
2022-09-13T19:44:11.124Z,100.00
2022-09-13T19:46:40.927Z,100.00
2022-09-13T19:49:08.960Z,100.00
2022-09-13T19:51:38.141Z,100.00
2022-09-13T19:54:08.103Z,100.00
2022-09-13T19:56:38.797Z,100.00
2022-09-13T19:59:07.970Z,100.00
2022-09-13T20:01:38.321Z,100.00
2022-09-13T20:04:08.332Z,100.00
2022-09-13T20:06:41.420Z,100.00
2022-09-13T20:09:10.031Z,100.00
2022-09-13T20:11:42.153Z,100.00
2022-09-13T20:14:10.054Z,100.00
2022-09-13T20:16:38.884Z,100.00
2022-09-13T20:19:29.764Z,100.00
2022-09-13T20:21:55.989Z,100.00
2022-09-13T20:24:23.198Z,100.00
2022-09-13T20:26:52.465Z,100.00
2022-09-13T20:29:19.613Z,100.00
2022-09-13T20:31:46.694Z,100.00
2022-09-13T20:34:15.394Z,100.00
2022-09-13T20:36:47.593Z,100.00
2022-09-13T20:39:15.680Z,100.00
2022-09-13T20:41:43.917Z,100.00
2022-09-13T20:44:12.587Z,100.00
2022-09-13T20:46:40.745Z,100.00
2022-09-13T20:49:09.470Z,100.00
2022-09-13T20:51:37.384Z,100.00
2022-09-13T20:54:05.250Z,100.00
2022-09-13T20:56:34.583Z,100.00
2022-09-13T20:59:01.984Z,100.00
2022-09-13T21:01:30.267Z,100.00
2022-09-13T21:03:57.651Z,100.00
2022-09-13T21:06:27.876Z,100.00
2022-09-13T21:08:56.549Z,100.00
2022-09-13T21:11:30.280Z,100.00
2022-09-13T21:13:59.621Z,100.00
2022-09-13T21:16:33.323Z,100.00
2022-09-13T21:19:03.610Z,100.00
2022-09-13T21:21:33.926Z,100.00
2022-09-13T21:24:03.822Z,100.00
2022-09-13T21:26:31.286Z,100.00
2022-09-13T21:28:59.300Z,100.00
2022-09-13T21:31:32.153Z,100.00
2022-09-13T21:34:08.186Z,100.00
2022-09-13T21:36:35.912Z,100.00
2022-09-13T21:39:03.545Z,100.00
2022-09-13T21:41:31.189Z,100.00
2022-09-13T21:43:57.910Z,100.00
2022-09-13T21:46:30.148Z,100.00
2022-09-13T21:48:59.744Z,100.00
2022-09-13T21:51:29.575Z,100.00
2022-09-13T21:53:59.328Z,100.00
2022-09-13T21:56:28.811Z,100.00
2022-09-13T21:59:00.565Z,100.00
2022-09-13T22:01:30.375Z,100.00
2022-09-13T22:03:58.370Z,100.00
2022-09-13T22:06:27.356Z,100.00
2022-09-13T22:08:58.285Z,100.00
2022-09-13T22:11:38.664Z,100.00
2022-09-13T22:14:06.722Z,100.00
2022-09-13T22:16:38.017Z,100.00
2022-09-13T22:19:09.523Z,100.00
2022-09-13T22:21:39.142Z,100.00
2022-09-13T22:24:07.465Z,100.00
2022-09-13T22:26:38.027Z,100.00
2022-09-13T22:29:05.337Z,100.00
2022-09-13T22:31:34.776Z,100.00
2022-09-13T22:34:02.675Z,100.00
2022-09-13T22:36:30.073Z,100.00
2022-09-13T22:38:57.180Z,100.00
2022-09-13T22:41:28.592Z,100.00
2022-09-13T22:43:56.264Z,100.00
2022-09-13T22:46:28.291Z,100.00
2022-09-13T22:48:56.059Z,100.00
2022-09-13T22:51:23.500Z,100.00
2022-09-13T22:53:51.896Z,100.00
2022-09-13T22:56:27.612Z,100.00
2022-09-13T22:58:56.332Z,100.00
2022-09-13T23:01:24.846Z,100.00
2022-09-13T23:03:52.657Z,100.00
2022-09-13T23:06:21.709Z,100.00
2022-09-13T23:08:50.523Z,100.00
2022-09-13T23:11:18.610Z,100.00
2022-09-13T23:13:47.215Z,99.92
2022-09-13T23:16:31.939Z,99.58
2022-09-13T23:18:59.820Z,99.39
2022-09-13T23:21:29.769Z,99.16
2022-09-13T23:23:56.643Z,98.82
2022-09-13T23:26:24.378Z,98.91
2022-09-13T23:28:57.150Z,98.88
2022-09-13T23:31:26.469Z,98.41
2022-09-13T23:33:56.020Z,98.18
2022-09-13T23:36:25.909Z,97.71
2022-09-13T23:38:55.447Z,97.64
2022-09-13T23:41:23.504Z,96.99
2022-09-13T23:43:50.447Z,96.20
2022-09-13T23:46:17.751Z,95.58
2022-09-13T23:48:45.410Z,94.97
2022-09-13T23:51:15.328Z,94.72
2022-09-13T23:53:42.635Z,94.18
2022-09-13T23:56:09.762Z,94.19
2022-09-13T23:58:37.905Z,94.63
